Time;durP1;ratioP1;P1;durP2;ratioP2;P2;SDS_P1;SDS_P2;PMS_P1;PMS_P2;Temp;Humidity;BMP_temperature;BMP_pressure;BME280_temperature;BME280_humidity;BME280_pressure;Samples;Min_cycle;Max_cycle;Signal;HPM_P1;HPM_P2
2023/05/16 00:01:29;;;;;;;12.30;9.97;;;;;;;11.25;81.09;100643.16;5104670;28;20207;-85
2023/05/16 00:03:56;;;;;;;12.00;9.73;;;;;;;11.25;81.26;100634.28;5101592;28;20220;-86
2023/05/16 00:06:23;;;;;;;12.60;10.20;;;;;;;11.23;81.51;100631.72;5104100;28;20210;-86
2023/05/16 00:08:51;;;;;;;13.43;9.53;;;;;;;11.21;81.79;100638.13;5108630;28;20211;-87
2023/05/16 00:11:17;;;;;;;12.13;9.20;;;;;;;11.22;82.10;100645.16;5108610;28;20216;-86
2023/05/16 00:13:46;;;;;;;15.60;9.60;;;;;;;11.23;82.41;100652.19;5110992;28;20239;-86
2023/05/16 00:16:13;;;;;;;10.43;8.87;;;;;;;11.20;82.32;100647.06;5107457;28;20196;-86
2023/05/16 00:18:39;;;;;;;12.00;8.80;;;;;;;11.18;82.39;100636.50;5109269;28;20203;-87
2023/05/16 00:21:06;;;;;;;12.53;9.00;;;;;;;11.16;82.59;100643.75;5113132;28;20688;-86
2023/05/16 00:23:33;;;;;;;11.83;9.10;;;;;;;11.14;82.61;100637.66;5109852;28;20203;-86
2023/05/16 00:26:01;;;;;;;10.90;8.33;;;;;;;11.11;82.78;100643.19;5109322;28;20238;-86
2023/05/16 00:28:27;;;;;;;10.17;8.43;;;;;;;11.09;83.24;100640.66;5109494;28;20216;-86
2023/05/16 00:30:54;;;;;;;12.03;8.30;;;;;;;11.08;83.10;100640.75;5109751;28;20718;-86
2023/05/16 00:33:20;;;;;;;9.17;7.57;;;;;;;11.05;83.18;100638.28;5113461;28;20231;-85
2023/05/16 00:35:46;;;;;;;8.40;7.33;;;;;;;11.04;83.24;100639.22;5111543;28;20205;-85
2023/05/16 00:38:13;;;;;;;8.47;7.00;;;;;;;11.01;83.33;100642.94;5110266;28;21518;-85
2023/05/16 00:40:39;;;;;;;8.33;6.20;;;;;;;11.00;83.53;100640.38;5105894;28;20208;-85
2023/05/16 00:43:07;;;;;;;7.60;6.67;;;;;;;10.99;83.55;100639.53;5107597;28;20653;-85
2023/05/16 00:45:34;;;;;;;9.33;8.10;;;;;;;10.99;83.46;100644.84;5103474;28;20224;-86
2023/05/16 00:48:00;;;;;;;8.30;6.93;;;;;;;10.96;83.78;100637.03;5111677;28;20208;-85
2023/05/16 00:50:27;;;;;;;9.10;7.10;;;;;;;10.97;83.63;100637.91;5107332;28;20223;-86
2023/05/16 00:52:53;;;;;;;10.30;6.83;;;;;;;10.98;83.60;100632.47;5111459;28;20220;-86
2023/05/16 00:55:20;;;;;;;9.63;7.87;;;;;;;10.98;83.90;100632.47;5110084;28;20883;-87
2023/05/16 00:57:46;;;;;;;9.70;8.23;;;;;;;10.97;84.01;100635.25;5103513;28;20208;-86
2023/05/16 01:00:15;;;;;;;12.43;8.93;;;;;;;10.95;84.20;100631.81;5105575;27;20200;-85
2023/05/16 01:02:41;;;;;;;9.33;7.57;;;;;;;10.97;83.82;100636.09;5119837;27;20211;-85
2023/05/16 01:05:08;;;;;;;8.77;7.87;;;;;;;10.96;84.40;100639.72;5117748;27;20869;-85
2023/05/16 01:07:35;;;;;;;9.20;7.60;;;;;;;10.92;84.63;100638.22;5112478;27;20293;-85
2023/05/16 01:10:03;;;;;;;10.30;8.50;;;;;;;10.93;84.50;100645.22;5120321;27;20813;-86
2023/05/16 01:12:36;;;;;;;10.10;7.53;;;;;;;10.95;84.62;100642.47;5113858;27;20233;-84
2023/05/16 01:15:08;;;;;;;11.03;8.03;;;;;;;10.93;84.67;100650.56;5104317;27;20881;-86
2023/05/16 01:17:50;;;;;;;9.57;7.50;;;;;;;10.95;85.14;100648.66;5107131;27;20203;-85
2023/05/16 01:20:25;;;;;;;9.53;7.47;;;;;;;10.97;85.18;100643.22;5111630;27;20218;-85
2023/05/16 01:23:01;;;;;;;8.50;7.23;;;;;;;10.98;85.53;100642.28;5101157;28;20211;-85
2023/05/16 01:25:39;;;;;;;8.57;6.90;;;;;;;10.97;85.60;100656.56;5106301;28;20232;-85
2023/05/16 01:28:07;;;;;;;6.60;5.63;;;;;;;10.98;85.54;100659.13;5108343;27;20319;-85
2023/05/16 01:30:39;;;;;;;8.77;5.93;;;;;;;10.96;85.55;100658.38;5108752;28;20594;-85
2023/05/16 01:33:05;;;;;;;7.37;5.43;;;;;;;10.97;85.66;100664.56;5108127;27;20226;-86
2023/05/16 01:35:32;;;;;;;8.43;5.60;;;;;;;10.94;85.57;100664.75;5115311;27;20223;-85
2023/05/16 01:38:05;;;;;;;6.17;5.57;;;;;;;10.92;85.43;100672.00;5108631;28;20205;-86
2023/05/16 01:40:42;;;;;;;7.73;6.10;;;;;;;10.92;85.49;100672.88;5105614;28;20205;-86
2023/05/16 01:43:14;;;;;;;7.03;5.87;;;;;;;10.93;85.17;100660.38;5112092;27;20192;-86
2023/05/16 01:45:47;;;;;;;8.47;6.30;;;;;;;10.91;84.93;100660.50;5108103;28;20608;-85
2023/05/16 01:48:22;;;;;;;7.37;6.23;;;;;;;10.92;84.76;100659.53;5111657;27;20192;-86
2023/05/16 01:50:54;;;;;;;6.77;6.17;;;;;;;10.93;84.57;100652.38;5106792;27;20211;-86
2023/05/16 01:53:23;;;;;;;8.73;6.70;;;;;;;10.92;84.48;100664.88;5110287;27;20585;-86
2023/05/16 01:55:52;;;;;;;8.50;6.50;;;;;;;10.93;84.30;100658.56;5111725;27;20208;-85
2023/05/16 01:58:22;;;;;;;10.77;7.47;;;;;;;10.93;84.28;100666.56;5106954;27;20208;-85
2023/05/16 02:00:49;;;;;;;7.87;7.10;;;;;;;10.95;84.82;100669.13;5114276;27;20249;-86
2023/05/16 02:03:15;;;;;;;9.27;7.57;;;;;;;10.95;84.70;100667.31;5115527;27;20647;-86
2023/05/16 02:05:42;;;;;;;10.17;8.27;;;;;;;10.93;84.53;100663.88;5110363;28;20235;-86
2023/05/16 02:08:08;;;;;;;11.60;7.40;;;;;;;10.94;84.94;100660.28;5105758;28;20211;-85
2023/05/16 02:10:35;;;;;;;11.17;7.27;;;;;;;10.94;85.02;100665.59;5107895;27;20227;-85
2023/05/16 02:13:01;;;;;;;9.00;8.03;;;;;;;10.93;85.27;100669.22;5101706;28;20671;-86
2023/05/16 02:15:29;;;;;;;10.53;8.30;;;;;;;10.92;85.98;100661.34;5109003;28;20567;-86
2023/05/16 02:17:57;;;;;;;9.70;8.67;;;;;;;10.91;85.91;100663.16;5106341;28;20202;-86
2023/05/16 02:20:23;;;;;;;9.93;8.37;;;;;;;10.92;86.19;100667.53;5114097;27;20642;-86
2023/05/16 02:22:50;;;;;;;11.43;8.83;;;;;;;10.90;86.16;100669.44;5096487;27;20207;-85
2023/05/16 02:25:16;;;;;;;12.50;9.30;;;;;;;10.90;86.11;100674.78;5111444;27;20228;-85
2023/05/16 02:27:43;;;;;;;10.70;8.37;;;;;;;10.89;86.43;100669.53;5103200;27;20570;-86
2023/05/16 02:30:11;;;;;;;12.07;9.10;;;;;;;10.87;86.43;100669.63;5110895;27;20216;-85
2023/05/16 02:32:40;;;;;;;10.27;8.90;;;;;;;10.85;86.26;100668.88;5108274;27;20257;-87
2023/05/16 02:35:07;;;;;;;9.67;8.13;;;;;;;10.86;86.63;100662.59;5110173;27;20233;-86
2023/05/16 02:37:33;;;;;;;12.03;8.70;;;;;;;10.87;86.37;100656.31;5114111;27;20196;-85
2023/05/16 02:40:00;;;;;;;11.87;8.20;;;;;;;10.89;86.42;100665.06;5102491;27;20193;-86
2023/05/16 02:42:27;;;;;;;9.77;7.40;;;;;;;10.89;86.40;100667.72;5109316;27;20569;-86
2023/05/16 02:44:53;;;;;;;9.23;6.20;;;;;;;10.90;86.70;100661.44;5109212;27;20346;-86
2023/05/16 02:47:19;;;;;;;8.83;6.80;;;;;;;10.92;86.69;100672.88;5106087;27;20208;-86
2023/05/16 02:49:47;;;;;;;8.70;5.77;;;;;;;10.94;86.58;100683.41;5102271;27;20211;-87
2023/05/16 02:52:14;;;;;;;7.77;5.57;;;;;;;10.93;86.09;100682.53;5114213;27;20594;-87
2023/05/16 02:54:41;;;;;;;7.17;5.57;;;;;;;10.90;86.24;100685.44;5110242;27;20220;-87
2023/05/16 02:57:08;;;;;;;10.50;6.07;;;;;;;10.89;86.12;100686.38;5101189;27;20217;-86
2023/05/16 02:59:35;;;;;;;9.17;5.03;;;;;;;10.89;86.13;100686.38;5114567;27;20265;-87
2023/05/16 03:02:01;;;;;;;8.33;4.57;;;;;;;10.90;86.15;100689.91;5105134;27;20587;-87
2023/05/16 03:04:28;;;;;;;6.73;4.13;;;;;;;10.91;85.90;100697.81;5112743;27;20577;-87
2023/05/16 03:06:56;;;;;;;6.03;4.00;;;;;;;10.89;85.81;100696.19;5107974;28;20245;-87
2023/05/16 03:09:22;;;;;;;4.33;3.63;;;;;;;10.88;85.57;100700.66;5117066;27;20208;-87
2023/05/16 03:11:49;;;;;;;4.80;3.50;;;;;;;10.86;85.26;100699.03;5104393;28;20286;-87
2023/05/16 03:14:15;;;;;;;5.13;3.77;;;;;;;10.84;84.92;100704.47;5107196;27;20301;-86
2023/05/16 03:16:42;;;;;;;7.10;4.30;;;;;;;10.82;85.03;100703.69;5108706;27;20196;-86
2023/05/16 03:19:09;;;;;;;8.67;3.97;;;;;;;10.79;84.70;100706.56;5104663;28;20275;-85
2023/05/16 03:21:35;;;;;;;6.33;3.70;;;;;;;10.76;84.65;100712.91;5101985;28;20774;-85
2023/05/16 03:24:04;;;;;;;4.47;2.90;;;;;;;10.75;84.90;100707.69;5096223;28;20227;-85
2023/05/16 03:26:30;;;;;;;5.00;3.33;;;;;;;10.73;84.47;100712.28;5108707;27;20215;-85
2023/05/16 03:28:58;;;;;;;4.40;2.83;;;;;;;10.74;84.69;100714.84;5105326;27;20203;-85
2023/05/16 03:31:24;;;;;;;3.10;2.50;;;;;;;10.73;84.58;100702.50;5103477;27;20239;-84
2023/05/16 03:33:51;;;;;;;6.17;2.50;;;;;;;10.72;85.42;100711.44;5111452;27;20230;-84
2023/05/16 03:36:17;;;;;;;5.30;2.37;;;;;;;10.70;85.55;100700.00;5108808;27;20200;-85
2023/05/16 03:38:44;;;;;;;4.40;2.10;;;;;;;10.68;85.82;100715.22;5104549;27;20210;-84
2023/05/16 03:41:12;;;;;;;5.60;2.47;;;;;;;10.64;86.09;100723.50;5114633;27;20230;-86
2023/05/16 03:43:38;;;;;;;4.80;2.13;;;;;;;10.61;86.58;100726.34;5108433;27;20211;-87
2023/05/16 03:46:05;;;;;;;4.27;2.37;;;;;;;10.58;86.76;100723.88;5103633;28;20199;-86
2023/05/16 03:48:31;;;;;;;7.27;2.63;;;;;;;10.55;86.67;100721.44;5110919;27;20196;-85
2023/05/16 03:50:57;;;;;;;5.33;2.23;;;;;;;10.55;87.03;100734.75;5106204;27;20227;-84
2023/05/16 03:53:24;;;;;;;10.33;2.93;;;;;;;10.51;87.64;100733.22;5104075;27;20205;-84
2023/05/16 03:55:50;;;;;;;4.87;2.63;;;;;;;10.49;87.35;100735.97;5107580;27;20207;-85
2023/05/16 03:58:18;;;;;;;5.13;2.50;;;;;;;10.49;87.56;100735.97;5109726;27;20208;-85
2023/05/16 04:00:45;;;;;;;7.33;2.80;;;;;;;10.48;87.74;100738.72;5104427;28;20203;-85
2023/05/16 04:03:12;;;;;;;4.20;2.00;;;;;;;10.46;88.19;100744.13;5105801;28;20201;-85
2023/05/16 04:05:38;;;;;;;5.57;2.50;;;;;;;10.46;87.88;100754.78;5109317;28;20238;-84
2023/05/16 04:08:05;;;;;;;6.73;2.60;;;;;;;10.43;88.24;100749.66;5106716;28;20204;-84
2023/05/16 04:10:31;;;;;;;7.40;3.23;;;;;;;10.44;88.74;100760.19;5094777;28;20248;-84
2023/05/16 04:12:58;;;;;;;7.40;2.93;;;;;;;10.43;89.14;100758.50;5102632;28;20874;-85
2023/05/16 04:15:26;;;;;;;6.03;2.57;;;;;;;10.40;89.41;100769.31;5109794;28;20749;-84
2023/05/16 04:17:52;;;;;;;4.43;2.43;;;;;;;10.36;89.19;100761.63;5104314;28;20204;-85
2023/05/16 04:20:19;;;;;;;6.37;2.57;;;;;;;10.32;89.29;100768.94;5108008;28;20203;-84
2023/05/16 04:22:46;;;;;;;5.47;2.23;;;;;;;10.29;89.48;100760.28;5109281;28;20199;-84
2023/05/16 04:25:13;;;;;;;7.80;3.07;;;;;;;10.27;89.14;100768.34;5111079;28;20231;-84
2023/05/16 04:27:39;;;;;;;7.03;2.63;;;;;;;10.24;88.90;100755.22;5113887;28;20222;-85
2023/05/16 04:30:07;;;;;;;4.50;2.30;;;;;;;10.24;89.30;100771.19;5111114;28;20206;-85
2023/05/16 04:32:35;;;;;;;8.53;2.70;;;;;;;10.21;89.25;100766.06;5100180;28;20229;-85
2023/05/16 04:35:02;;;;;;;6.70;3.30;;;;;;;10.21;88.90;100781.19;5110339;28;20219;-85
2023/05/16 04:37:29;;;;;;;9.77;3.50;;;;;;;10.21;88.95;100776.69;5114000;27;20592;-85
2023/05/16 04:39:55;;;;;;;7.20;2.80;;;;;;;10.20;88.63;100783.00;5104637;27;20197;-84
2023/05/16 04:42:23;;;;;;;6.77;2.80;;;;;;;10.22;88.82;100783.72;5110233;27;20211;-85
2023/05/16 04:44:49;;;;;;;7.77;2.50;;;;;;;10.22;88.56;100785.53;5110698;27;20219;-85
2023/05/16 04:47:16;;;;;;;8.37;2.80;;;;;;;10.23;88.43;100787.25;5110490;27;20197;-85
2023/05/16 04:49:43;;;;;;;8.20;2.73;;;;;;;10.25;87.80;100794.19;5103687;28;20192;-85
2023/05/16 04:52:10;;;;;;;8.93;3.10;;;;;;;10.25;88.04;100791.53;5108100;28;20220;-84
2023/05/16 04:54:38;;;;;;;9.67;2.47;;;;;;;10.26;87.90;100798.59;5108440;27;20666;-84
2023/05/16 04:57:05;;;;;;;5.63;2.10;;;;;;;10.28;87.41;100802.00;5104120;27;20195;-85
2023/05/16 04:59:31;;;;;;;10.80;2.60;;;;;;;10.30;87.18;100810.78;5109517;27;20215;-84
2023/05/16 05:01:58;;;;;;;8.90;2.33;;;;;;;10.31;86.96;100812.47;5103261;27;21065;-83
2023/05/16 05:04:24;;;;;;;7.60;2.90;;;;;;;10.29;86.84;100814.38;5111626;27;20226;-84
2023/05/16 05:06:52;;;;;;;7.93;2.47;;;;;;;10.29;86.68;100811.72;5113877;27;20218;-84
2023/05/16 05:09:19;;;;;;;6.43;2.13;;;;;;;10.28;86.39;100811.81;5109094;27;20208;-85
2023/05/16 05:11:46;;;;;;;12.97;3.43;;;;;;;10.27;85.96;100823.41;5106381;28;20223;-84
2023/05/16 05:14:12;;;;;;;7.93;2.77;;;;;;;10.25;85.81;100828.81;5110074;27;20225;-82
2023/05/16 05:16:39;;;;;;;8.23;2.40;;;;;;;10.23;85.35;100833.38;5108068;27;20210;-85
2023/05/16 05:19:05;;;;;;;10.07;2.43;;;;;;;10.23;84.88;100835.16;5107638;28;20287;-85
2023/05/16 05:21:32;;;;;;;9.37;2.80;;;;;;;10.23;84.43;100828.03;5109170;27;20212;-85
2023/05/16 05:24:00;;;;;;;7.00;2.23;;;;;;;10.19;83.80;100837.19;5106932;27;20597;-84
2023/05/16 05:26:27;;;;;;;9.07;2.67;;;;;;;10.16;83.58;100839.97;5109920;28;20200;-84
2023/05/16 05:28:54;;;;;;;6.97;2.10;;;;;;;10.16;83.07;100841.78;5110599;28;20216;-85
2023/05/16 05:31:20;;;;;;;4.77;2.20;;;;;;;10.16;83.31;100844.44;5111780;27;20224;-85
2023/05/16 05:33:47;;;;;;;8.40;3.00;;;;;;;10.16;82.64;100839.97;5106872;28;20215;-85
2023/05/16 05:36:13;;;;;;;6.57;2.27;;;;;;;10.17;82.45;100856.81;5105529;28;20285;-85
2023/05/16 05:38:40;;;;;;;10.53;2.20;;;;;;;10.16;82.35;100866.59;5110533;27;20195;-85
2023/05/16 05:41:07;;;;;;;9.00;2.27;;;;;;;10.17;81.96;100873.63;5109655;28;20579;-85
2023/05/16 05:43:34;;;;;;;8.97;2.10;;;;;;;10.19;81.85;100871.78;5110445;27;21138;-85
2023/05/16 05:46:01;;;;;;;5.63;1.70;;;;;;;10.20;81.62;100873.50;5111927;27;20208;-83
2023/05/16 05:48:28;;;;;;;8.70;2.03;;;;;;;10.20;81.46;100870.84;5115130;28;20301;-84
2023/05/16 05:50:55;;;;;;;9.97;2.20;;;;;;;10.19;80.52;100886.88;5115284;28;20260;-83
2023/05/16 05:53:22;;;;;;;6.37;1.73;;;;;;;10.15;79.36;100891.50;5113456;28;20269;-83
2023/05/16 05:55:48;;;;;;;12.27;2.00;;;;;;;10.10;78.68;100878.44;5113472;28;20219;-84
2023/05/16 05:58:17;;;;;;;8.77;2.47;;;;;;;10.07;78.15;100894.59;5113639;28;20222;-84
2023/05/16 06:00:43;;;;;;;7.77;1.90;;;;;;;10.04;77.09;100888.56;5113322;28;20191;-84
2023/05/16 06:03:10;;;;;;;11.33;2.17;;;;;;;10.02;77.62;100893.16;5113998;28;20284;-83
2023/05/16 06:05:36;;;;;;;7.97;2.43;;;;;;;10.02;76.79;100903.78;5114904;28;20222;-84
2023/05/16 06:08:03;;;;;;;8.27;2.07;;;;;;;10.04;77.09;100900.06;5114198;28;20215;-84
2023/05/16 06:10:30;;;;;;;7.83;1.60;;;;;;;10.03;76.74;100902.84;5112996;28;20200;-83
2023/05/16 06:12:59;;;;;;;5.90;1.80;;;;;;;10.07;76.51;100904.38;5113803;28;20232;-83
2023/05/16 06:15:27;;;;;;;9.37;2.17;;;;;;;10.09;76.41;100913.13;5113659;28;20302;-84
2023/05/16 06:17:53;;;;;;;8.40;1.90;;;;;;;10.16;76.11;100919.81;5113761;28;20697;-83
2023/05/16 06:20:20;;;;;;;10.40;1.97;;;;;;;10.23;76.36;100920.34;5122921;27;20195;-83
2023/05/16 06:22:49;;;;;;;9.40;1.90;;;;;;;10.26;75.50;100920.19;5135116;27;20203;-83
2023/05/16 06:25:16;;;;;;;7.47;2.00;;;;;;;10.29;75.25;100920.84;5134588;27;20231;-83
2023/05/16 06:27:42;;;;;;;13.03;1.90;;;;;;;10.35;75.17;100925.84;5133221;27;20207;-83
2023/05/16 06:30:09;;;;;;;7.97;1.67;;;;;;;10.39;74.35;100926.53;5133762;27;20203;-84
2023/05/16 06:32:39;;;;;;;7.60;1.73;;;;;;;10.40;74.09;100934.41;5133502;27;20229;-83
2023/05/16 06:35:05;;;;;;;7.47;1.87;;;;;;;10.46;73.19;100932.34;5133324;27;20253;-84
2023/05/16 06:37:34;;;;;;;8.37;1.47;;;;;;;10.47;72.90;100939.38;5135031;27;20203;-83
2023/05/16 06:40:01;;;;;;;7.13;1.70;;;;;;;10.50;72.47;100936.53;5134773;27;20684;-84
2023/05/16 06:42:27;;;;;;;8.33;1.67;;;;;;;10.49;71.87;100949.00;5134065;27;20211;-83
2023/05/16 06:44:56;;;;;;;6.03;1.93;;;;;;;10.49;71.59;100945.47;5133181;27;20215;-83
2023/05/16 06:47:23;;;;;;;15.40;1.90;;;;;;;10.51;71.18;100954.22;5133693;27;20210;-83
2023/05/16 06:49:51;;;;;;;8.33;1.60;;;;;;;10.48;70.58;100959.72;5133000;27;20293;-84
2023/05/16 06:52:17;;;;;;;8.57;1.57;;;;;;;10.54;70.29;100962.06;5133440;27;20311;-84
2023/05/16 06:54:43;;;;;;;9.07;1.60;;;;;;;10.57;70.13;100944.06;5133355;27;20231;-83
2023/05/16 06:57:10;;;;;;;9.40;2.13;;;;;;;10.65;69.85;100948.94;5134018;27;20215;-84
2023/05/16 06:59:36;;;;;;;10.83;2.33;;;;;;;10.77;69.68;100953.53;5133495;27;20219;-83
2023/05/16 07:02:03;;;;;;;7.43;1.80;;;;;;;10.88;69.43;100953.78;5133257;27;20212;-83
2023/05/16 07:04:29;;;;;;;9.20;2.23;;;;;;;10.96;68.59;100955.97;5132754;27;20226;-83
2023/05/16 07:06:57;;;;;;;4.07;1.43;;;;;;;10.96;67.73;100950.63;5133543;27;20201;-83
2023/05/16 07:09:24;;;;;;;5.93;1.87;;;;;;;10.97;67.08;100955.88;5134098;27;20207;-83
2023/05/16 07:11:50;;;;;;;7.90;1.50;;;;;;;11.00;66.76;100950.38;5134752;27;20227;-83
2023/05/16 07:14:17;;;;;;;7.80;1.50;;;;;;;11.06;67.09;100952.69;5135022;27;20216;-84
2023/05/16 07:16:43;;;;;;;12.20;1.60;;;;;;;11.19;66.65;100959.91;5133863;27;20199;-84
2023/05/16 07:19:10;;;;;;;7.93;1.77;;;;;;;11.29;66.48;100950.41;5133504;27;20211;-84
2023/05/16 07:21:36;;;;;;;9.07;1.63;;;;;;;11.37;65.97;100959.66;5133306;27;20332;-85
2023/05/16 07:24:05;;;;;;;9.47;1.70;;;;;;;11.41;65.39;100955.84;5133227;27;20216;-84
2023/05/16 07:26:32;;;;;;;7.30;1.67;;;;;;;11.45;64.99;100956.53;5132781;27;20601;-83
2023/05/16 07:28:58;;;;;;;7.87;1.33;;;;;;;11.44;64.30;100961.00;5133456;27;20209;-82
2023/05/16 07:31:25;;;;;;;11.30;1.40;;;;;;;11.47;63.91;100970.59;5134202;27;20207;-83
2023/05/16 07:33:51;;;;;;;9.47;1.80;;;;;;;11.50;62.96;100975.75;5132583;27;20235;-84
2023/05/16 07:36:24;;;;;;;10.83;1.67;;;;;;;11.59;62.92;100977.84;5132839;27;20199;-83
2023/05/16 07:38:50;;;;;;;5.50;1.27;;;;;;;11.65;62.08;100969.44;5132387;27;20217;-84
2023/05/16 07:41:18;;;;;;;6.53;1.47;;;;;;;11.69;61.10;100978.13;5132137;27;20753;-82
2023/05/16 07:43:45;;;;;;;5.90;1.07;;;;;;;11.64;59.33;100982.91;5132261;27;20233;-84
2023/05/16 07:46:13;;;;;;;8.67;1.47;;;;;;;11.61;58.88;100975.94;5132980;27;20196;-83
2023/05/16 07:48:40;;;;;;;3.60;1.40;;;;;;;11.62;59.04;100983.00;5134013;27;20228;-83
2023/05/16 07:51:06;;;;;;;7.23;1.13;;;;;;;11.67;58.87;100980.88;5115162;27;20691;-84
2023/05/16 07:53:33;;;;;;;7.07;1.10;;;;;;;11.71;58.74;100971.75;5111545;28;20590;-84
2023/05/16 07:56:00;;;;;;;6.03;1.60;;;;;;;11.85;58.91;100975.38;5111928;28;20209;-84
2023/05/16 07:58:27;;;;;;;4.60;1.07;;;;;;;11.93;58.28;100971.28;5111888;28;20237;-84
2023/05/16 08:00:54;;;;;;;9.03;1.40;;;;;;;12.03;57.53;100974.19;5111653;28;20579;-83
2023/05/16 08:03:21;;;;;;;5.20;1.10;;;;;;;12.15;56.51;100973.44;5112401;28;20545;-83
2023/05/16 08:05:48;;;;;;;6.07;1.13;;;;;;;12.22;55.20;100980.06;5112859;28;20239;-84
2023/05/16 08:08:15;;;;;;;5.23;1.03;;;;;;;12.24;54.79;100983.50;5111801;28;20260;-83
2023/05/16 08:10:41;;;;;;;5.93;1.03;;;;;;;12.26;54.39;100981.59;5113706;28;20207;-83
2023/05/16 08:13:08;;;;;;;6.40;1.23;;;;;;;12.29;54.00;100981.41;5115806;28;20586;-83
2023/05/16 08:15:36;;;;;;;6.63;1.10;;;;;;;12.38;54.18;100985.25;5115135;28;20223;-83
2023/05/16 08:18:02;;;;;;;3.87;1.20;;;;;;;12.53;53.68;100976.28;5115496;28;20210;-83
2023/05/16 08:20:29;;;;;;;6.27;1.60;;;;;;;12.69;53.33;100978.78;5115408;28;20214;-83
2023/05/16 08:22:55;;;;;;;3.33;1.00;;;;;;;12.85;52.93;100980.31;5116878;28;20205;-84
2023/05/16 08:25:22;;;;;;;6.87;1.33;;;;;;;13.07;52.69;100979.72;5117774;28;20234;-83
2023/05/16 08:27:50;;;;;;;4.23;0.77;;;;;;;13.23;51.86;100970.66;5116586;28;20210;-82
2023/05/16 08:30:16;;;;;;;3.33;1.03;;;;;;;13.36;51.66;100976.88;5116383;28;20207;-83
2023/05/16 08:32:44;;;;;;;4.03;1.13;;;;;;;13.49;51.33;100967.00;5115238;28;20223;-82
2023/05/16 08:35:11;;;;;;;9.23;1.70;;;;;;;13.62;51.35;100981.22;5115951;28;20219;-82
2023/05/16 08:37:38;;;;;;;7.57;1.23;;;;;;;13.72;51.05;100976.94;5116492;28;20254;-83
2023/05/16 08:40:07;;;;;;;3.67;0.90;;;;;;;13.76;50.44;100982.94;5115502;28;20208;-82
2023/05/16 08:42:34;;;;;;;4.73;1.27;;;;;;;13.73;49.32;100980.47;5116387;28;20206;-82
2023/05/16 08:45:02;;;;;;;3.77;1.07;;;;;;;13.72;49.29;100989.47;5115527;28;20220;-83
2023/05/16 08:47:33;;;;;;;7.67;0.93;;;;;;;13.82;48.70;100977.13;5115778;28;20597;-83
2023/05/16 08:50:03;;;;;;;4.83;1.20;;;;;;;13.94;48.97;100987.00;5114955;28;20702;-83
2023/05/16 08:52:32;;;;;;;3.57;0.93;;;;;;;14.11;49.35;100983.09;5115162;28;20231;-82
2023/05/16 08:55:04;;;;;;;7.67;1.30;;;;;;;14.22;49.33;100991.19;5114964;28;20223;-83
2023/05/16 08:57:32;;;;;;;5.23;1.10;;;;;;;14.26;49.53;100987.31;5115673;28;20662;-84
2023/05/16 09:00:00;;;;;;;3.80;1.10;;;;;;;14.33;48.55;100991.25;5116010;28;20212;-83
2023/05/16 09:02:26;;;;;;;5.37;0.83;;;;;;;14.36;47.06;100993.69;5114420;28;20203;-82
2023/05/16 09:04:54;;;;;;;4.30;1.10;;;;;;;14.42;46.76;100990.63;5114307;28;20243;-82
2023/05/16 09:07:22;;;;;;;4.20;1.00;;;;;;;14.48;46.41;100987.50;5114427;28;20254;-83
2023/05/16 09:09:48;;;;;;;2.77;1.10;;;;;;;14.51;45.50;100981.06;5114611;28;20202;-83
2023/05/16 09:12:15;;;;;;;5.20;1.10;;;;;;;14.54;45.79;100973.59;5114052;28;20207;-83
2023/05/16 09:14:42;;;;;;;2.40;0.70;;;;;;;14.60;46.34;100977.66;5115415;28;20228;-83
2023/05/16 09:17:10;;;;;;;6.20;0.90;;;;;;;14.57;45.29;100984.09;5115507;28;20298;-83
2023/05/16 09:19:38;;;;;;;5.53;1.20;;;;;;;14.61;46.01;100984.75;5113960;28;20293;-82
2023/05/16 09:22:06;;;;;;;2.07;0.70;;;;;;;14.69;46.04;100995.72;5113786;28;20225;-83
2023/05/16 09:24:38;;;;;;;3.33;0.90;;;;;;;14.79;46.11;100993.22;5113930;28;20306;-83
2023/05/16 09:27:08;;;;;;;6.90;1.20;;;;;;;14.92;46.40;101000.22;5114227;28;20188;-83
2023/05/16 09:29:35;;;;;;;4.20;1.10;;;;;;;15.09;46.14;100987.34;5114117;28;20692;-83
2023/05/16 09:32:08;;;;;;;5.90;1.40;;;;;;;15.15;46.21;100982.38;5115578;28;20200;-83
2023/05/16 09:34:38;;;;;;;3.53;1.17;;;;;;;15.17;45.64;100980.44;5115316;28;20624;-83
2023/05/16 09:37:05;;;;;;;6.70;1.17;;;;;;;15.14;45.74;100975.28;5114098;28;20203;-82
2023/05/16 09:39:31;;;;;;;4.47;1.10;;;;;;;15.19;45.82;100978.50;5113873;28;20203;-82
2023/05/16 09:42:00;;;;;;;3.97;1.40;;;;;;;15.25;45.54;100971.78;5113776;28;20694;-83
2023/05/16 09:44:27;;;;;;;5.23;1.10;;;;;;;15.22;45.19;100978.25;5113870;28;20229;-82
2023/05/16 09:46:54;;;;;;;3.70;0.83;;;;;;;15.07;44.49;100983.91;5114671;28;20207;-82
2023/05/16 09:49:21;;;;;;;5.53;1.43;;;;;;;14.94;44.64;100967.91;5115263;28;20199;-83
2023/05/16 09:51:47;;;;;;;5.37;1.30;;;;;;;14.93;45.30;100966.22;5114069;28;20212;-83
2023/05/16 09:54:14;;;;;;;6.47;1.03;;;;;;;14.96;44.58;100959.75;5095760;28;20237;-83
2023/05/16 09:56:49;;;;;;;5.53;1.00;;;;;;;15.04;44.58;100965.41;5111078;28;20202;-83
2023/05/16 09:59:17;;;;;;;3.53;1.33;;;;;;;15.13;44.90;100967.38;5113870;28;20219;-82
2023/05/16 10:01:43;;;;;;;3.47;0.90;;;;;;;15.18;44.44;100966.03;5114098;28;20211;-83
2023/05/16 10:04:12;;;;;;;4.07;0.97;;;;;;;15.23;43.78;100969.19;5114692;28;20224;-82
2023/05/16 10:06:41;;;;;;;6.63;0.73;;;;;;;15.23;43.66;100968.34;5113757;28;20650;-83
2023/05/16 10:09:08;;;;;;;4.87;0.87;;;;;;;15.26;42.66;100968.97;5112458;28;20649;-82
2023/05/16 10:11:35;;;;;;;6.83;1.03;;;;;;;15.37;43.36;100973.53;5112794;28;20200;-82
2023/05/16 10:14:05;;;;;;;2.73;1.10;;;;;;;15.49;43.00;100969.00;5112634;28;20261;-83
2023/05/16 10:16:33;;;;;;;5.43;1.27;;;;;;;15.63;43.33;100963.44;5112700;28;20216;-83
2023/05/16 10:19:00;;;;;;;7.03;2.00;;;;;;;15.70;42.15;100972.72;5112934;28;20211;-83
2023/05/16 10:21:29;;;;;;;2.27;0.90;;;;;;;15.80;42.18;100962.94;5114323;28;20200;-83
2023/05/16 10:23:58;;;;;;;6.17;0.93;;;;;;;15.89;41.89;100970.28;5117239;27;20213;-82
2023/05/16 10:26:26;;;;;;;2.17;0.70;;;;;;;15.98;41.50;100977.56;5133014;27;20205;-83
2023/05/16 10:28:53;;;;;;;4.77;0.77;;;;;;;16.05;40.43;100963.66;5133408;27;20220;-83
2023/05/16 10:31:21;;;;;;;3.50;0.80;;;;;;;16.08;39.85;100968.78;5133008;27;20205;-82
2023/05/16 10:33:49;;;;;;;4.03;1.07;;;;;;;16.18;40.36;100962.53;5132589;27;20252;-82
2023/05/16 10:36:17;;;;;;;5.30;0.87;;;;;;;16.30;40.20;100955.31;5133400;27;20210;-82
2023/05/16 10:38:44;;;;;;;4.03;0.83;;;;;;;16.38;40.16;100966.25;5134525;27;20577;-82
2023/05/16 10:41:11;;;;;;;3.93;1.10;;;;;;;16.43;40.38;100961.38;5132941;27;20209;-83
2023/05/16 10:43:38;;;;;;;2.27;0.73;;;;;;;16.53;40.21;100956.91;5132675;27;20208;-82
2023/05/16 10:46:08;;;;;;;4.10;0.83;;;;;;;16.55;39.04;100954.97;5133078;27;20209;-82
2023/05/16 10:48:36;;;;;;;5.00;0.80;;;;;;;16.56;38.90;100948.59;5133055;27;20247;-83
2023/05/16 10:51:34;;;;;;;6.83;1.10;;;;;;;16.57;38.88;100947.63;5127865;27;20291;-82
2023/05/16 10:54:06;;;;;;;4.07;0.90;;;;;;;16.51;38.89;100958.88;5113235;28;20235;-82
2023/05/16 10:56:33;;;;;;;2.53;0.90;;;;;;;16.46;39.39;100965.63;5113326;28;20283;-83
2023/05/16 10:58:59;;;;;;;4.77;0.90;;;;;;;16.45;38.63;100972.84;5111684;28;20207;-82
2023/05/16 11:01:28;;;;;;;6.73;0.83;;;;;;;16.47;38.39;100960.13;5127413;27;20229;-82
2023/05/16 11:04:06;;;;;;;2.63;0.60;;;;;;;16.54;38.33;100958.63;5132352;27;20309;-83
2023/05/16 11:06:35;;;;;;;3.87;1.00;;;;;;;16.60;37.74;100958.13;5133005;27;20189;-82
2023/05/16 11:09:09;;;;;;;3.10;0.90;;;;;;;16.70;37.72;100957.38;5112314;28;20207;-82
2023/05/16 11:11:40;;;;;;;3.17;1.10;;;;;;;16.69;37.08;100961.91;5113525;28;20584;-83
2023/05/16 11:14:06;;;;;;;3.50;1.00;;;;;;;16.75;37.73;100958.69;5112037;28;20233;-83
2023/05/16 11:16:34;;;;;;;4.20;0.70;;;;;;;16.84;37.91;100965.97;5111537;28;20698;-83
2023/05/16 11:19:05;;;;;;;3.53;0.83;;;;;;;16.86;36.41;100955.94;5116205;27;20210;-82
2023/05/16 11:22:07;;;;;;;1.60;0.60;;;;;;;16.81;35.70;100965.41;5132001;27;20205;-82
2023/05/16 11:24:34;;;;;;;2.70;0.63;;;;;;;16.84;35.94;100949.84;5132185;27;20272;-83
2023/05/16 11:27:02;;;;;;;2.90;0.93;;;;;;;16.90;36.42;100952.03;5134216;27;20210;-82